createdAt,value
2018-09-27T00:01:27.451Z,11.30
2018-09-27T00:03:54.765Z,11.10
2018-09-27T00:06:22.123Z,11.00
2018-09-27T00:08:49.437Z,11.00
2018-09-27T00:11:16.630Z,11.00
2018-09-27T00:13:43.836Z,11.10
2018-09-27T00:16:12.079Z,11.00
2018-09-27T00:18:39.244Z,10.90
2018-09-27T00:21:06.609Z,11.00
2018-09-27T00:23:33.759Z,11.00
2018-09-27T00:26:00.991Z,11.00
2018-09-27T00:28:29.342Z,10.90
2018-09-27T00:30:56.657Z,10.90
2018-09-27T00:33:23.877Z,10.80
2018-09-27T00:35:51.061Z,10.70
2018-09-27T00:38:18.233Z,10.60
2018-09-27T00:40:45.744Z,10.50
2018-09-27T00:43:13.458Z,10.60
2018-09-27T00:45:42.413Z,10.60
2018-09-27T00:48:10.595Z,10.50
2018-09-27T00:50:38.084Z,10.50
2018-09-27T00:53:05.392Z,10.60
2018-09-27T00:55:32.573Z,10.60
2018-09-27T00:57:59.760Z,10.60
2018-09-27T01:00:27.086Z,10.60
2018-09-27T01:02:54.445Z,10.60
2018-09-27T01:05:21.818Z,10.60
2018-09-27T01:07:49.068Z,10.60
2018-09-27T01:10:16.246Z,10.60
2018-09-27T01:12:43.580Z,10.50
2018-09-27T01:15:11.228Z,10.50
2018-09-27T01:17:38.639Z,10.30
2018-09-27T01:20:06.063Z,10.30
2018-09-27T01:22:33.243Z,10.30
2018-09-27T01:25:00.479Z,10.30
2018-09-27T01:27:27.756Z,10.30
2018-09-27T01:29:55.071Z,10.40
2018-09-27T01:32:23.449Z,10.20
2018-09-27T01:34:50.731Z,10.10
2018-09-27T01:37:17.858Z,10.10
2018-09-27T01:39:44.969Z,10.10
2018-09-27T01:42:12.220Z,10.10
2018-09-27T01:44:39.538Z,10.20
2018-09-27T01:47:06.880Z,10.20
2018-09-27T01:49:34.216Z,10.20
2018-09-27T01:52:01.617Z,10.10
2018-09-27T01:54:28.793Z,10.10
2018-09-27T01:56:57.127Z,10.10
2018-09-27T01:59:24.410Z,10.10
2018-09-27T02:01:51.623Z,10.10
2018-09-27T02:04:18.740Z,10.10
2018-09-27T02:06:45.908Z,10.00
2018-09-27T02:09:13.093Z,9.90
2018-09-27T02:11:40.253Z,9.80
2018-09-27T02:14:07.532Z,9.90
2018-09-27T02:16:34.921Z,9.90
2018-09-27T02:19:02.245Z,9.90
2018-09-27T02:21:29.561Z,9.80
2018-09-27T02:23:56.828Z,9.80
2018-09-27T02:26:24.373Z,9.80
2018-09-27T02:28:51.611Z,9.80
2018-09-27T02:31:18.861Z,9.90
2018-09-27T02:33:46.018Z,9.90
2018-09-27T02:36:13.724Z,10.00
2018-09-27T02:38:40.979Z,10.00
2018-09-27T02:41:08.294Z,10.00
2018-09-27T02:43:35.558Z,10.00
2018-09-27T02:46:02.888Z,9.90
2018-09-27T02:48:30.141Z,9.80
2018-09-27T02:50:57.405Z,9.80
2018-09-27T02:53:24.609Z,9.70
2018-09-27T02:55:51.792Z,9.70
2018-09-27T02:58:19.136Z,9.70
2018-09-27T03:00:46.608Z,9.70
2018-09-27T03:03:13.892Z,9.60
2018-09-27T03:05:41.056Z,9.70
2018-09-27T03:08:08.304Z,9.70
2018-09-27T03:10:35.511Z,9.70
2018-09-27T03:13:02.762Z,9.70
2018-09-27T03:15:30.968Z,9.70
2018-09-27T03:17:58.211Z,9.70
2018-09-27T03:20:25.463Z,9.70
2018-09-27T03:22:52.632Z,9.60
2018-09-27T03:25:19.943Z,9.50
2018-09-27T03:27:47.149Z,9.50
2018-09-27T03:30:14.455Z,9.30
2018-09-27T03:32:41.701Z,9.30
2018-09-27T03:35:09.253Z,9.20
2018-09-27T03:37:36.457Z,9.20
2018-09-27T03:40:03.754Z,9.30
2018-09-27T03:42:30.911Z,9.30
2018-09-27T03:44:58.255Z,9.30
2018-09-27T03:47:26.074Z,9.40
2018-09-27T03:49:53.507Z,9.40
2018-09-27T03:52:20.836Z,9.50
2018-09-27T03:54:48.093Z,9.50
2018-09-27T03:57:15.339Z,9.50
2018-09-27T03:59:42.600Z,9.30
2018-09-27T04:02:10.252Z,9.20
2018-09-27T04:04:37.572Z,9.20
2018-09-27T04:07:04.816Z,9.20
2018-09-27T04:09:32.414Z,9.30
2018-09-27T04:11:59.885Z,9.30
2018-09-27T04:14:27.218Z,9.30
2018-09-27T04:16:54.544Z,9.40
2018-09-27T04:19:21.842Z,9.30
2018-09-27T04:21:49.115Z,9.30
2018-09-27T04:24:16.306Z,9.30
2018-09-27T04:26:43.458Z,9.20
2018-09-27T04:29:10.809Z,9.00
2018-09-27T04:31:38.330Z,9.10
2018-09-27T04:34:05.573Z,9.10
2018-09-27T04:36:32.896Z,9.10
2018-09-27T04:39:00.535Z,9.00
2018-09-27T04:41:27.947Z,8.90
2018-09-27T04:43:55.146Z,8.90
2018-09-27T04:46:22.355Z,8.90
2018-09-27T04:48:49.694Z,8.90
2018-09-27T04:51:16.968Z,8.90
2018-09-27T04:53:44.648Z,8.90
2018-09-27T04:56:11.877Z,8.90
2018-09-27T04:58:39.840Z,8.90
2018-09-27T05:01:07.421Z,8.90
2018-09-27T05:03:36.868Z,8.80
2018-09-27T05:06:04.288Z,8.90
2018-09-27T05:08:31.593Z,9.00
2018-09-27T05:10:59.035Z,9.10
2018-09-27T05:13:26.383Z,9.10
2018-09-27T05:15:54.537Z,9.10
2018-09-27T05:18:21.929Z,9.20
2018-09-27T05:20:49.274Z,9.20
2018-09-27T05:23:16.725Z,9.30
2018-09-27T05:25:44.074Z,9.20
2018-09-27T05:28:11.461Z,9.10
2018-09-27T05:30:39.373Z,9.10
2018-09-27T05:33:07.872Z,9.10
2018-09-27T05:35:35.186Z,9.20
2018-09-27T05:38:02.541Z,9.30
2018-09-27T05:40:29.904Z,9.30
2018-09-27T05:42:57.482Z,9.20
2018-09-27T05:45:24.848Z,9.20
2018-09-27T05:47:52.188Z,9.20
2018-09-27T05:50:19.961Z,9.20
2018-09-27T05:52:47.360Z,9.20
2018-09-27T05:55:14.810Z,9.20
2018-09-27T05:57:42.266Z,9.30
2018-09-27T06:00:09.713Z,9.40
2018-09-27T06:02:37.076Z,9.50
2018-09-27T06:05:04.503Z,9.50
2018-09-27T06:07:32.205Z,9.50
2018-09-27T06:09:59.655Z,9.40
2018-09-27T06:12:27.771Z,9.40
2018-09-27T06:14:55.217Z,9.40
2018-09-27T06:17:22.982Z,9.60
2018-09-27T06:19:50.634Z,9.60
2018-09-27T06:22:18.152Z,9.60
2018-09-27T06:24:46.079Z,9.70
2018-09-27T06:27:13.505Z,9.70
2018-09-27T06:29:41.528Z,9.70
2018-09-27T06:34:43.384Z,9.70
2018-09-27T06:37:12.185Z,9.70
2018-09-27T06:39:39.687Z,9.80
2018-09-27T06:42:07.310Z,9.80
2018-09-27T06:44:34.805Z,9.90
2018-09-27T06:47:02.299Z,9.90
2018-09-27T06:49:29.649Z,9.80
2018-09-27T06:51:57.211Z,9.70
2018-09-27T06:54:24.646Z,9.60
2018-09-27T06:56:51.981Z,9.60
2018-09-27T06:59:19.629Z,9.70
2018-09-27T07:01:46.924Z,9.80
2018-09-27T07:04:14.338Z,9.90
2018-09-27T07:06:41.618Z,10.20
2018-09-27T07:09:11.868Z,10.30
2018-09-27T07:11:39.705Z,10.30
2018-09-27T07:14:07.495Z,10.40
2018-09-27T07:16:36.350Z,10.50
2018-09-27T07:19:04.018Z,10.60
2018-09-27T07:21:31.300Z,10.60
2018-09-27T07:23:59.226Z,10.60
2018-09-27T07:26:27.584Z,10.60
2018-09-27T07:28:54.947Z,10.70
2018-09-27T07:31:27.127Z,10.70
2018-09-27T07:33:54.748Z,10.90
2018-09-27T07:36:23.033Z,11.00
2018-09-27T07:38:54.547Z,11.00
2018-09-27T07:41:22.569Z,11.10
2018-09-27T07:43:50.307Z,11.20
2018-09-27T07:46:18.081Z,11.40
2018-09-27T07:48:45.714Z,11.50
2018-09-27T07:51:13.116Z,11.50
2018-09-27T07:53:40.436Z,11.60
2018-09-27T07:56:08.841Z,11.60
2018-09-27T07:58:36.118Z,11.60
2018-09-27T08:01:03.357Z,11.80
2018-09-27T08:03:30.609Z,12.00
2018-09-27T08:05:57.751Z,12.10
2018-09-27T08:08:25.016Z,12.20
2018-09-27T08:10:52.485Z,12.20
2018-09-27T08:13:19.877Z,12.20
2018-09-27T08:15:47.212Z,12.30
2018-09-27T08:18:14.547Z,12.20
2018-09-27T08:20:42.197Z,12.30
2018-09-27T08:23:10.573Z,12.50
2018-09-27T08:25:38.193Z,12.50
2018-09-27T08:28:05.793Z,12.70
2018-09-27T08:30:34.472Z,12.80
2018-09-27T08:33:02.111Z,12.90
2018-09-27T08:35:29.495Z,13.00
2018-09-27T08:37:57.846Z,13.20
2018-09-27T08:40:25.288Z,13.30
2018-09-27T08:42:52.736Z,13.30
2018-09-27T08:45:20.511Z,13.30
2018-09-27T08:47:47.991Z,13.40
2018-09-27T08:50:15.419Z,13.40
2018-09-27T08:52:43.351Z,13.40
2018-09-27T08:55:10.994Z,13.50
2018-09-27T08:57:38.592Z,13.50
2018-09-27T09:00:06.976Z,13.60
2018-09-27T09:02:35.227Z,13.70
2018-09-27T09:05:03.536Z,13.90
2018-09-27T09:07:30.997Z,14.00
2018-09-27T09:09:58.364Z,14.10
2018-09-27T09:12:25.776Z,14.20
2018-09-27T09:14:53.338Z,14.40
2018-09-27T09:17:20.938Z,14.60
2018-09-27T09:19:48.529Z,14.70
2018-09-27T09:22:16.034Z,14.80
2018-09-27T09:24:43.822Z,14.90
2018-09-27T09:27:11.269Z,14.90
2018-09-27T09:29:39.048Z,15.10
2018-09-27T09:32:07.468Z,15.10
2018-09-27T09:34:35.211Z,15.10
2018-09-27T09:37:02.676Z,15.10
2018-09-27T09:39:29.923Z,15.20
2018-09-27T09:41:57.413Z,15.30
2018-09-27T09:44:24.979Z,15.30
2018-09-27T09:46:53.071Z,15.50
2018-09-27T09:49:20.504Z,15.70
2018-09-27T09:51:47.813Z,15.80
2018-09-27T09:54:15.298Z,15.70
2018-09-27T09:56:43.114Z,15.60
2018-09-27T09:59:10.622Z,15.70
2018-09-27T10:01:37.955Z,15.90
2018-09-27T10:04:05.436Z,16.00
2018-09-27T10:06:33.067Z,16.20
2018-09-27T10:09:00.719Z,16.40
2018-09-27T10:11:28.136Z,16.50
2018-09-27T10:13:55.519Z,16.80
2018-09-27T10:16:22.949Z,16.80
2018-09-27T10:18:50.273Z,16.90
2018-09-27T10:21:17.870Z,16.80
2018-09-27T10:23:46.658Z,16.80
2018-09-27T10:26:14.122Z,16.70
2018-09-27T10:28:41.392Z,16.80
2018-09-27T10:31:09.699Z,16.90
2018-09-27T10:33:36.900Z,17.00
2018-09-27T10:36:04.499Z,17.20
2018-09-27T10:38:31.879Z,17.50
2018-09-27T10:40:59.279Z,17.90
2018-09-27T10:43:26.588Z,18.00
2018-09-27T10:45:54.241Z,17.90
2018-09-27T10:48:22.023Z,17.80
2018-09-27T10:50:49.376Z,17.70
2018-09-27T10:53:16.961Z,17.80
2018-09-27T10:55:44.391Z,17.80
2018-09-27T10:58:11.707Z,18.00
2018-09-27T11:00:39.046Z,18.20
2018-09-27T11:03:06.583Z,18.30
2018-09-27T11:05:34.071Z,18.40
2018-09-27T11:08:01.570Z,18.30
2018-09-27T11:10:30.276Z,18.30
2018-09-27T11:12:58.389Z,18.60
2018-09-27T11:15:25.926Z,18.80
2018-09-27T11:17:53.485Z,18.80
2018-09-27T11:20:20.695Z,18.90
2018-09-27T11:22:48.344Z,19.00
2018-09-27T11:25:15.941Z,19.20
2018-09-27T11:27:45.933Z,19.40
2018-09-27T11:30:19.255Z,19.70
2018-09-27T11:32:47.432Z,20.10
2018-09-27T11:35:14.913Z,20.30
2018-09-27T11:37:42.293Z,20.40
2018-09-27T11:40:10.462Z,20.60
2018-09-27T11:42:39.037Z,20.80
2018-09-27T11:45:09.834Z,20.90
2018-09-27T11:47:37.195Z,21.00
2018-09-27T11:50:05.081Z,21.10
2018-09-27T11:52:32.509Z,21.40
2018-09-27T11:55:00.294Z,21.70
2018-09-27T11:57:27.837Z,21.80
2018-09-27T11:59:55.471Z,22.00
2018-09-27T12:02:23.353Z,22.10
2018-09-27T12:04:51.494Z,21.90
2018-09-27T12:07:19.508Z,21.90
2018-09-27T12:09:47.824Z,22.10
2018-09-27T12:12:17.812Z,22.20
2018-09-27T12:14:45.515Z,22.40
2018-09-27T12:17:12.840Z,22.50
2018-09-27T12:19:40.425Z,22.80
2018-09-27T12:22:07.946Z,22.80
2018-09-27T12:24:36.632Z,22.70
2018-09-27T12:27:04.093Z,22.60
2018-09-27T12:29:33.090Z,22.70
2018-09-27T12:32:00.910Z,22.80
2018-09-27T12:34:28.618Z,22.50
2018-09-27T12:36:58.559Z,22.30
2018-09-27T12:39:27.053Z,22.30
2018-09-27T12:41:55.934Z,22.70
2018-09-27T12:44:23.313Z,23.00
2018-09-27T12:46:51.802Z,23.30
2018-09-27T12:49:19.182Z,23.50
2018-09-27T12:51:46.743Z,23.50
2018-09-27T12:54:14.500Z,23.30
2018-09-27T12:56:41.824Z,23.10
2018-09-27T12:59:09.239Z,23.00
2018-09-27T13:01:37.084Z,23.10
2018-09-27T13:04:04.779Z,23.20
2018-09-27T13:06:32.778Z,23.60
2018-09-27T13:09:05.656Z,24.00
2018-09-27T13:11:32.802Z,24.00
2018-09-27T13:14:01.085Z,23.70
2018-09-27T13:16:28.656Z,23.70
2018-09-27T13:18:57.942Z,23.80
2018-09-27T13:21:23.830Z,23.80
2018-09-27T13:23:51.305Z,23.90
2018-09-27T13:26:18.637Z,24.10
2018-09-27T13:28:46.003Z,24.30
2018-09-27T13:31:13.828Z,24.50
2018-09-27T13:33:42.350Z,24.60
2018-09-27T13:36:10.435Z,24.50
2018-09-27T13:38:39.709Z,24.60
2018-09-27T13:41:07.473Z,24.50
2018-09-27T13:43:36.538Z,24.80
2018-09-27T13:46:04.493Z,25.30
2018-09-27T13:48:31.707Z,25.40
2018-09-27T13:50:59.093Z,25.60
2018-09-27T13:53:26.447Z,25.70
2018-09-27T13:55:53.973Z,25.50
2018-09-27T13:58:21.298Z,25.80
2018-09-27T14:00:49.121Z,26.00
2018-09-27T14:03:16.467Z,26.30
2018-09-27T14:05:43.906Z,26.50
2018-09-27T14:08:11.549Z,26.70
2018-09-27T14:10:38.808Z,26.80
2018-09-27T14:13:06.577Z,27.10
2018-09-27T14:15:33.837Z,27.10
2018-09-27T14:18:01.341Z,27.30
2018-09-27T14:20:28.872Z,27.40
2018-09-27T14:22:56.153Z,27.60
2018-09-27T14:25:23.796Z,27.90
2018-09-27T14:27:51.533Z,28.00
2018-09-27T14:30:19.162Z,28.30
2018-09-27T14:32:46.413Z,28.30
2018-09-27T14:35:13.950Z,28.20
2018-09-27T14:37:41.337Z,28.10
2018-09-27T14:40:09.281Z,28.20
2018-09-27T14:42:36.635Z,27.80
2018-09-27T14:45:05.025Z,27.60
2018-09-27T14:47:32.542Z,27.30
2018-09-27T14:50:00.105Z,27.30
2018-09-27T14:52:27.504Z,27.10
2018-09-27T14:54:54.737Z,27.00
2018-09-27T14:57:22.039Z,27.10
2018-09-27T14:59:49.495Z,27.30
2018-09-27T15:02:17.063Z,27.20
2018-09-27T15:04:44.754Z,27.00
2018-09-27T15:07:12.002Z,26.70
2018-09-27T15:09:39.347Z,26.80
2018-09-27T15:12:06.573Z,26.90
2018-09-27T15:14:34.388Z,26.90
2018-09-27T15:17:02.004Z,26.40
2018-09-27T15:19:29.425Z,26.10
2018-09-27T15:21:56.782Z,26.40
2018-09-27T15:24:24.074Z,26.60
2018-09-27T15:26:51.484Z,26.60
2018-09-27T15:29:22.313Z,26.50
2018-09-27T15:31:49.823Z,26.50
2018-09-27T15:34:17.272Z,26.90
2018-09-27T15:36:44.576Z,27.20
2018-09-27T15:39:12.286Z,27.00
2018-09-27T15:41:43.731Z,26.70
2018-09-27T15:44:11.128Z,26.70
2018-09-27T15:46:38.621Z,26.50
2018-09-27T15:49:06.061Z,26.40
2018-09-27T15:51:33.501Z,26.30
2018-09-27T15:54:00.809Z,26.40
2018-09-27T15:56:28.516Z,26.70
2018-09-27T15:58:56.247Z,27.20
2018-09-27T16:01:23.550Z,27.40
2018-09-27T16:03:50.829Z,27.50
2018-09-27T16:06:18.069Z,27.60
2018-09-27T16:08:45.498Z,27.50
2018-09-27T16:11:12.684Z,27.60
2018-09-27T16:13:40.054Z,27.60
2018-09-27T16:16:07.306Z,27.40
2018-09-27T16:18:34.710Z,27.10
2018-09-27T16:21:02.044Z,27.20
2018-09-27T16:23:29.464Z,27.40
2018-09-27T16:25:56.788Z,27.60
2018-09-27T16:28:24.167Z,27.70
2018-09-27T16:30:51.634Z,28.00
2018-09-27T16:33:19.432Z,28.20
2018-09-27T16:35:48.043Z,28.40
2018-09-27T16:38:15.438Z,28.30
2018-09-27T16:40:43.057Z,28.10
2018-09-27T16:43:10.967Z,28.60
2018-09-27T16:45:38.951Z,29.10
2018-09-27T16:48:06.673Z,29.00
2018-09-27T16:50:34.249Z,29.00
2018-09-27T16:53:01.754Z,29.10
2018-09-27T16:55:29.421Z,28.60
2018-09-27T16:57:58.805Z,27.60
2018-09-27T17:00:27.628Z,26.60
2018-09-27T17:02:55.116Z,25.70
2018-09-27T17:05:22.805Z,24.80
2018-09-27T17:07:52.077Z,24.20
2018-09-27T17:10:20.140Z,23.60
2018-09-27T17:12:48.365Z,23.30
2018-09-27T17:15:17.477Z,23.10
2018-09-27T17:17:45.134Z,22.90
2018-09-27T17:20:13.513Z,22.70
2018-09-27T17:22:41.513Z,22.40
2018-09-27T17:25:09.933Z,22.20
2018-09-27T17:27:38.835Z,22.00
2018-09-27T17:30:07.961Z,21.80
2018-09-27T17:32:35.517Z,21.60
2018-09-27T17:35:03.387Z,21.40
2018-09-27T17:37:31.293Z,21.10
2018-09-27T17:39:59.616Z,21.00
2018-09-27T17:42:27.993Z,21.00
2018-09-27T17:44:55.611Z,20.90
2018-09-27T17:47:23.652Z,20.90
2018-09-27T17:49:51.638Z,20.90
2018-09-27T17:52:19.338Z,20.70
2018-09-27T17:54:54.382Z,20.60
2018-09-27T17:57:23.009Z,20.50
2018-09-27T17:59:52.050Z,20.40
2018-09-27T18:02:19.609Z,20.30
2018-09-27T18:04:47.400Z,20.20
2018-09-27T18:07:15.053Z,20.10
2018-09-27T18:09:42.437Z,19.90
2018-09-27T18:12:10.737Z,19.80
2018-09-27T18:14:38.086Z,19.50
2018-09-27T18:17:06.106Z,19.20
2018-09-27T18:19:33.651Z,19.10
2018-09-27T18:22:01.048Z,19.10
2018-09-27T18:24:37.955Z,19.00
2018-09-27T18:27:05.822Z,19.00
2018-09-27T18:29:33.265Z,18.90
2018-09-27T18:32:01.353Z,18.80
2018-09-27T18:34:29.900Z,18.70
2018-09-27T18:36:59.447Z,18.50
2018-09-27T18:39:26.864Z,18.50
2018-09-27T18:41:54.644Z,18.40
2018-09-27T18:44:22.473Z,18.50
2018-09-27T18:46:50.582Z,18.40
2018-09-27T18:49:17.898Z,18.30
2018-09-27T18:51:45.327Z,18.30
2018-09-27T18:54:12.900Z,18.30
2018-09-27T18:56:40.489Z,18.20
2018-09-27T18:59:08.128Z,18.20
2018-09-27T19:01:35.433Z,18.10
2018-09-27T19:04:02.693Z,17.90
2018-09-27T19:06:32.313Z,17.70
2018-09-27T19:09:00.001Z,17.60
2018-09-27T19:11:27.354Z,17.50
2018-09-27T19:13:54.923Z,17.40
2018-09-27T19:16:23.006Z,17.30
2018-09-27T19:18:50.283Z,17.20
2018-09-27T19:21:17.875Z,17.20
2018-09-27T19:23:45.258Z,17.20
2018-09-27T19:26:14.944Z,17.10
2018-09-27T19:28:42.275Z,17.10
2018-09-27T19:31:09.878Z,17.00
2018-09-27T19:33:37.379Z,17.00
2018-09-27T19:36:05.071Z,17.10
2018-09-27T19:38:32.296Z,17.10
2018-09-27T19:40:59.709Z,17.00
2018-09-27T19:43:27.099Z,17.00
2018-09-27T19:45:54.633Z,17.00
2018-09-27T19:48:22.274Z,16.90
2018-09-27T19:50:49.705Z,16.80
2018-09-27T19:53:17.424Z,16.80
2018-09-27T19:55:45.873Z,16.70
2018-09-27T19:58:13.210Z,16.70
2018-09-27T20:00:40.498Z,16.70
2018-09-27T20:03:07.674Z,16.60
2018-09-27T20:05:34.886Z,16.60
2018-09-27T20:08:02.189Z,16.50
2018-09-27T20:10:30.924Z,16.40
2018-09-27T20:12:58.415Z,16.30
2018-09-27T20:15:25.861Z,16.30
2018-09-27T20:17:53.371Z,16.30
2018-09-27T20:20:20.735Z,16.20
2018-09-27T20:22:48.066Z,16.10
2018-09-27T20:25:15.992Z,16.00
2018-09-27T20:27:43.501Z,16.00
2018-09-27T20:30:11.728Z,16.00
2018-09-27T20:32:39.912Z,16.00
2018-09-27T20:35:07.396Z,16.00
2018-09-27T20:37:34.874Z,15.90
2018-09-27T20:40:02.232Z,15.90
2018-09-27T20:42:29.568Z,15.80
2018-09-27T20:45:01.525Z,15.80
2018-09-27T20:47:29.371Z,15.70
2018-09-27T20:49:57.696Z,15.70
2018-09-27T20:52:25.143Z,15.60
2018-09-27T20:54:52.575Z,15.60
2018-09-27T20:57:20.287Z,15.60
2018-09-27T20:59:47.664Z,15.60
2018-09-27T21:02:15.093Z,15.50
2018-09-27T21:04:42.892Z,15.50
2018-09-27T21:07:11.045Z,15.50
2018-09-27T21:09:40.544Z,15.40
2018-09-27T21:12:09.197Z,15.40
2018-09-27T21:14:37.888Z,15.30
2018-09-27T21:17:05.864Z,15.30
2018-09-27T21:19:33.666Z,15.20
2018-09-27T21:22:01.331Z,15.20
2018-09-27T21:24:28.819Z,15.10
2018-09-27T21:26:56.197Z,15.00
2018-09-27T21:29:23.990Z,15.00
2018-09-27T21:31:51.338Z,14.90
2018-09-27T21:34:18.804Z,14.90
2018-09-27T21:36:46.257Z,14.80
2018-09-27T21:39:13.820Z,14.80
2018-09-27T21:41:41.262Z,14.80
2018-09-27T21:44:08.873Z,14.80
2018-09-27T21:46:36.539Z,14.80
2018-09-27T21:49:03.771Z,14.70
2018-09-27T21:51:31.490Z,14.70
2018-09-27T21:53:58.954Z,14.60
2018-09-27T21:56:28.510Z,14.60
2018-09-27T21:58:55.959Z,14.60
2018-09-27T22:01:23.697Z,14.60
2018-09-27T22:03:51.629Z,14.50
2018-09-27T22:06:19.217Z,14.50
2018-09-27T22:08:46.781Z,14.40
2018-09-27T22:11:14.626Z,14.40
2018-09-27T22:13:43.137Z,14.30
2018-09-27T22:16:12.016Z,14.40
2018-09-27T22:18:40.513Z,14.40
2018-09-27T22:21:08.777Z,14.30
2018-09-27T22:23:36.480Z,14.20
2018-09-27T22:26:03.638Z,14.20
2018-09-27T22:28:33.097Z,14.20
2018-09-27T22:31:00.651Z,14.30
2018-09-27T22:33:28.196Z,14.30
2018-09-27T22:35:55.560Z,14.30
2018-09-27T22:38:23.290Z,14.30
2018-09-27T22:40:50.534Z,14.20
2018-09-27T22:43:17.762Z,14.20
2018-09-27T22:45:45.361Z,14.20
2018-09-27T22:48:12.578Z,14.20
2018-09-27T22:50:39.847Z,14.10
2018-09-27T22:53:07.116Z,14.10
2018-09-27T22:55:34.659Z,14.00
2018-09-27T22:58:01.915Z,13.90
2018-09-27T23:00:29.121Z,13.90
2018-09-27T23:02:56.585Z,13.80
2018-09-27T23:05:23.874Z,13.80
2018-09-27T23:07:51.193Z,13.80
2018-09-27T23:10:18.535Z,13.80
2018-09-27T23:12:47.019Z,13.90
2018-09-27T23:15:14.414Z,13.90
2018-09-27T23:17:41.634Z,13.90
2018-09-27T23:20:09.797Z,13.90
2018-09-27T23:22:37.073Z,13.90
2018-09-27T23:25:04.423Z,14.00
2018-09-27T23:27:31.805Z,14.00
2018-09-27T23:29:59.929Z,14.00
2018-09-27T23:32:27.287Z,13.90
2018-09-27T23:34:54.704Z,13.90
2018-09-27T23:37:21.948Z,13.80
2018-09-27T23:39:49.276Z,13.70
2018-09-27T23:42:19.726Z,13.70
2018-09-27T23:44:47.077Z,13.70
2018-09-27T23:47:14.509Z,13.70
2018-09-27T23:49:42.193Z,13.70
2018-09-27T23:52:10.532Z,13.70
2018-09-27T23:54:37.800Z,13.60
2018-09-27T23:57:05.083Z,13.60
2018-09-27T23:59:32.263Z,13.60
